Time;durP1;ratioP1;P1;durP2;ratioP2;P2;SDS_P1;SDS_P2;PMS_P1;PMS_P2;Temp;Humidity;BMP_temperature;BMP_pressure;BME280_temperature;BME280_humidity;BME280_pressure;Samples;Min_cycle;Max_cycle;Signal;HPM_P1;HPM_P2
2024/03/18 05:42:54;;;;;;;;;;;;;;;5.01;100.00;99863.83;85754;1301;22658;-52
2024/03/18 05:45:25;;;;;;;;;;;;;;;5.04;100.00;99867.50;106754;1301;23024;-52
2024/03/18 05:47:55;;;;;;;;;;;;;;;5.07;100.00;99866.00;106440;1301;22548;-52
2024/03/18 05:50:36;;;;;;;;;;;;;;;5.09;100.00;99866.70;106555;1295;22537;-57
2024/03/18 05:53:23;;;;;;;;;;;;;;;5.10;100.00;99866.02;105419;1301;22566;-52
2024/03/18 05:56:15;;;;;;;;;;;;;;;5.12;100.00;99865.38;105896;1295;22628;-55
2024/03/18 05:58:45;;;;;;;;;;;;;;;5.16;100.00;99867.70;107750;1295;22518;-53
2024/03/18 06:01:17;;;;;;;;;;;;;;;5.20;100.00;99863.92;107250;1295;23047;-57
2024/03/18 06:03:57;;;;;;;;;;;;;;;5.22;100.00;99865.19;105389;1300;22570;-57
2024/03/18 06:06:36;;;;;;;;;;;;;;;5.27;100.00;99861.95;106348;1295;22862;-53
2024/03/18 06:10:17;;;;;;;;;;;;;;;5.32;100.00;99856.85;106108;1301;23270;-56
2024/03/18 06:12:49;;;;;;;;;;;;;;;5.37;100.00;99858.64;106855;1285;23070;-57
2024/03/18 06:15:16;;;;;;;;;;;;;;;5.40;100.00;99860.23;107278;1295;22547;-53
2024/03/18 06:17:44;;;;;;;;;;;;;;;5.43;100.00;99860.80;107347;1295;23421;-53
2024/03/18 06:20:21;;;;;;;;;;;;;;;5.47;100.00;99860.69;106731;1295;23404;-57
2024/03/18 06:23:03;;;;;;;;;;;;;;;5.50;100.00;99855.71;107392;1297;22574;-58
2024/03/18 06:28:58;;;;;;;;;;;;;;;5.58;100.00;99850.46;106160;1294;24088;-58
2024/03/18 06:36:32;;;;;;;;;;;;;;;5.65;100.00;99851.94;106846;1294;22588;-57
2024/03/18 06:39:20;;;;;;;;;;;;;;;5.69;100.00;99850.07;106439;1295;22557;-57
2024/03/18 06:49:15;;;;;;;;;;;;;;;5.81;100.00;99838.81;105089;1295;22574;-52
2024/03/18 06:52:38;;;;;;;;;;;;;;;5.84;100.00;99836.59;105537;1295;23443;-58
2024/03/18 06:55:44;;;;;;;;;;;;;;;5.91;100.00;99833.75;105369;1295;23068;-53
2024/03/18 06:58:43;;;;;;;;;;;;;;;5.94;100.00;99830.86;106359;1301;22626;-54
2024/03/18 07:09:23;;;;;;;;;;;;;;;6.08;100.00;99825.45;108580;1289;24372;31
2024/03/18 07:16:33;;;;;;;;;;;;;;;6.18;100.00;99819.15;105616;1299;22566;-58
2024/03/18 07:19:59;;;;;;;;;;;;;;;6.23;100.00;99813.32;105647;1307;22703;-54
2024/03/18 07:28:47;;;;;;;;;;;;;;;6.26;100.00;99807.98;105285;1303;25810;-60
2024/03/18 07:31:26;;;;;;;;;;;;;;;6.25;100.00;99806.58;105707;1310;22599;-56
2024/03/18 07:35:12;;;;;;;;;;;;;;;6.26;100.00;99803.13;104551;1310;22583;-59
2024/03/18 07:39:04;;;;;;;;;;;;;;;6.28;100.00;99796.58;105577;1304;22565;-59
2024/03/18 07:41:49;;;;;;;;;;;;;;;6.31;100.00;99793.98;105281;1304;25351;-57
2024/03/18 07:44:51;;;;;;;;;;;;;;;6.33;100.00;99785.53;105231;1302;24887;-55
2024/03/18 07:49:06;;;;;;;;;;;;;;;6.43;100.00;99782.15;100160;1310;8121099;-56
2024/03/18 07:52:41;;;;;;;;;;;;;;;6.50;100.00;99778.40;106154;1302;23471;-60
2024/03/18 08:00:38;;;;;;;;;;;;;;;6.56;100.00;99773.60;107329;1284;23388;-60
2024/03/18 08:03:39;;;;;;;;;;;;;;;6.58;100.00;99769.80;105767;1302;23731;-59
2024/03/18 08:11:06;;;;;;;;;;;;;;;6.73;100.00;99761.95;105134;1298;23830;-59
2024/03/18 08:18:21;;;;;;;;;;;;;;;6.76;100.00;99754.67;109199;1280;22576;31
2024/03/18 08:21:53;;;;;;;;;;;;;;;6.79;100.00;99751.58;107602;1277;24310;-53
2024/03/18 08:36:14;;;;;;;;;;;;;;;6.87;100.00;99738.64;107525;1288;22613;-66
2024/03/18 08:38:51;;;;;;;;;;;;;;;6.84;100.00;99735.84;106142;1296;23457;-60
2024/03/18 08:41:43;;;;;;;;;;;;;;;6.82;100.00;99736.17;106406;1298;22648;-60
2024/03/18 08:44:13;;;;;;;;;;;;;;;6.80;100.00;99740.48;106285;1303;23317;-59
2024/03/18 08:46:44;;;;;;;;;;;;;;;6.78;100.00;99739.77;106621;1297;22619;-55
2024/03/18 08:49:30;;;;;;;;;;;;;;;6.77;100.00;99735.61;106085;1303;23244;-55
2024/03/18 08:52:14;;;;;;;;;;;;;;;6.79;100.00;99737.90;105171;1296;23317;-55
2024/03/18 08:55:59;;;;;;;;;;;;;;;6.79;100.00;99735.48;106562;1297;22652;-60
2024/03/18 08:58:31;;;;;;;;;;;;;;;6.80;100.00;99734.43;105961;1297;22601;-60
2024/03/18 09:01:28;;;;;;;;;;;;;;;6.79;100.00;99731.31;105508;1301;22546;-57
2024/03/18 09:08:20;;;;;;;;;;;;;;;6.84;100.00;99721.44;105623;1298;22542;-60
2024/03/18 09:14:43;;;;;;;;;;;;;;;6.84;100.00;99718.69;106682;1297;22850;-60
2024/03/18 09:18:21;;;;;;;;;;;;;;;6.87;100.00;99711.93;105338;1296;22582;-60
2024/03/18 09:30:17;;;;;;;;;;;;;;;6.99;100.00;99696.73;106298;1298;22758;-56
2024/03/18 09:32:45;;;;;;;;;;;;;;;7.04;100.00;99694.52;106163;1300;23961;-61
2024/03/18 09:38:57;;;;;;;;;;;;;;;7.16;100.00;99688.15;106670;1300;22537;-57
2024/03/18 09:41:32;;;;;;;;;;;;;;;7.18;100.00;99682.95;105737;1296;22545;-56
2024/03/18 09:44:18;;;;;;;;;;;;;;;7.21;100.00;99673.26;105957;1298;22556;-59
2024/03/18 09:46:52;;;;;;;;;;;;;;;7.25;100.00;99672.56;105622;1298;23397;-61
2024/03/18 09:49:29;;;;;;;;;;;;;;;7.31;100.00;99669.13;105688;1288;22606;-59
2024/03/18 09:52:04;;;;;;;;;;;;;;;7.34;100.00;99668.95;105462;1290;25320;-56
2024/03/18 09:55:22;;;;;;;;;;;;;;;7.37;100.00;99663.95;105226;1297;25084;-54
2024/03/18 09:57:54;;;;;;;;;;;;;;;7.37;100.00;99658.39;106871;1303;22646;-56
2024/03/18 10:00:31;;;;;;;;;;;;;;;7.37;100.00;99663.09;106902;1300;22695;-54
2024/03/18 10:03:21;;;;;;;;;;;;;;;7.38;100.00;99663.77;106056;1302;23061;-55
2024/03/18 10:05:58;;;;;;;;;;;;;;;7.39;100.00;99658.05;106441;1298;22639;-56
2024/03/18 10:08:31;;;;;;;;;;;;;;;7.42;100.00;99652.84;106938;1301;25193;-57
2024/03/18 10:15:35;;;;;;;;;;;;;;;7.48;100.00;99648.52;105551;1297;25448;-62
2024/03/18 10:18:12;;;;;;;;;;;;;;;7.50;100.00;99642.45;105374;1303;24246;-53
2024/03/18 10:20:47;;;;;;;;;;;;;;;7.48;100.00;99642.27;105867;1297;22571;-59
2024/03/18 10:23:33;;;;;;;;;;;;;;;7.44;100.00;99640.36;105759;1303;22572;-55
2024/03/18 10:26:09;;;;;;;;;;;;;;;7.40;100.00;99639.48;106107;1297;22582;-55
2024/03/18 10:28:40;;;;;;;;;;;;;;;7.39;100.00;99636.01;106297;1298;23400;-55
2024/03/18 10:31:16;;;;;;;;;;;;;;;7.40;100.00;99635.13;106878;1297;23202;-55
2024/03/18 10:33:47;;;;;;;;;;;;;;;7.40;100.00;99628.71;105955;1298;22903;-56
2024/03/18 10:36:17;;;;;;;;;;;;;;;7.38;100.00;99628.02;106547;1299;24273;-56
2024/03/18 10:39:08;;;;;;;;;;;;;;;7.30;100.00;99622.80;106262;1296;22643;-54
2024/03/18 10:41:48;;;;;;;;;;;;;;;7.26;100.00;99624.70;106424;1303;22558;-55
2024/03/18 10:47:50;;;;;;;;;;;;;;;7.20;100.00;99613.59;106484;1303;22572;-56
2024/03/18 10:50:59;;;;;;;;;;;;;;;7.21;100.00;99605.95;106769;1297;22582;-55
2024/03/18 10:54:18;;;;;;;;;;;;;;;7.18;100.00;99604.90;106758;1297;22643;-56
2024/03/18 10:57:19;;;;;;;;;;;;;;;7.17;100.00;99600.91;105626;1301;22581;-59
2024/03/18 11:05:28;;;;;;;;;;;;;;;7.17;100.00;99590.84;106982;1298;22569;-53
2024/03/18 11:08:13;;;;;;;;;;;;;;;7.20;100.00;99581.84;106744;1300;22594;-56
2024/03/18 11:10:43;;;;;;;;;;;;;;;7.23;100.00;99570.56;106095;1302;22637;-51
2024/03/18 11:13:12;;;;;;;;;;;;;;;7.24;100.00;99568.83;107369;1297;23192;-51
2024/03/18 11:15:55;;;;;;;;;;;;;;;7.25;100.00;99563.46;106468;1297;22586;-51
2024/03/18 11:18:27;;;;;;;;;;;;;;;7.27;100.00;99562.95;106603;1296;23395;-55
2024/03/18 11:21:02;;;;;;;;;;;;;;;7.27;100.00;99559.30;106457;1298;23272;-54
2024/03/18 11:24:03;;;;;;;;;;;;;;;7.27;100.00;99555.49;106346;1297;23082;-58
2024/03/18 11:30:39;;;;;;;;;;;;;;;7.30;100.00;99546.48;107084;1285;22651;-60
2024/03/18 11:33:39;;;;;;;;;;;;;;;7.34;100.00;99546.48;106908;1298;22532;-64
2024/03/18 11:36:39;;;;;;;;;;;;;;;7.37;100.00;99544.41;106790;1298;22651;-63
2024/03/18 11:39:12;;;;;;;;;;;;;;;7.40;100.00;99534.67;106964;1298;23227;-54
2024/03/18 11:41:42;;;;;;;;;;;;;;;7.42;100.00;99533.66;106903;1298;23033;-50
2024/03/18 11:44:21;;;;;;;;;;;;;;;7.43;100.00;99537.81;106392;1298;22568;-61
2024/03/18 11:47:08;;;;;;;;;;;;;;;7.44;100.00;99531.58;106300;1298;22579;-59
2024/03/18 11:49:47;;;;;;;;;;;;;;;7.51;100.00;99525.48;106538;1297;23396;-59
2024/03/18 11:52:23;;;;;;;;;;;;;;;7.56;100.00;99520.81;106547;1299;23018;-59
2024/03/18 11:55:10;;;;;;;;;;;;;;;7.62;100.00;99519.94;106431;1298;22741;-55
2024/03/18 11:58:03;;;;;;;;;;;;;;;7.65;100.00;99517.34;105806;1300;26295;-63
2024/03/18 12:00:37;;;;;;;;;;;;;;;7.65;100.00;99515.26;106486;1298;22739;-64
2024/03/18 12:03:10;;;;;;;;;;;;;;;7.61;100.00;99528.61;106184;1300;22657;-54
2024/03/18 12:06:04;;;;;;;;;;;;;;;7.49;100.00;99526.88;106326;1297;22567;-50
2024/03/18 12:09:11;;;;;;;;;;;;;;;7.36;100.00;99527.05;105935;1298;22662;-65
2024/03/18 12:11:40;;;;;;;;;;;;;;;7.30;100.00;99527.73;106007;1297;22597;-64
2024/03/18 12:14:13;;;;;;;;;;;;;;;7.25;100.00;99527.89;105910;1298;22576;-60
2024/03/18 12:16:45;;;;;;;;;;;;;;;7.24;100.00;99530.32;105895;1298;22612;-52
2024/03/18 12:19:59;;;;;;;;;;;;;;;7.21;100.00;99528.94;106456;1303;23263;-55
2024/03/18 12:29:25;;;;;;;;;;;;;;;7.21;100.00;99530.68;106567;1306;23829;-56
2024/03/18 12:31:54;;;;;;;;;;;;;;;7.21;100.00;99529.13;106268;1303;22651;-56
2024/03/18 12:34:38;;;;;;;;;;;;;;;7.22;100.00;99526.16;106038;1304;22571;-57
2024/03/18 12:46:40;;;;;;;;;;;;;;;7.45;100.00;99520.64;105610;1303;22974;-54
2024/03/18 12:49:25;;;;;;;;;;;;;;;7.54;100.00;99516.81;105845;1306;22582;-55
2024/03/18 12:56:05;;;;;;;;;;;;;;;7.70;100.00;99516.11;106074;1306;22589;-57
2024/03/18 12:58:35;;;;;;;;;;;;;;;7.77;100.00;99514.55;105035;1303;22943;-55
2024/03/18 13:01:09;;;;;;;;;;;;;;;7.83;100.00;99517.66;105828;1304;22639;-56
2024/03/18 13:03:44;;;;;;;;;;;;;;;7.80;100.00;99521.14;106921;1297;22581;-61
2024/03/18 13:06:23;;;;;;;;;;;;;;;7.73;100.00;99517.33;107268;1304;22555;-56
2024/03/18 13:08:53;;;;;;;;;;;;;;;7.69;100.00;99521.14;106779;1297;22785;-61
2024/03/18 13:11:22;;;;;;;;;;;;;;;7.65;100.00;99522.02;106330;1303;23833;-63
2024/03/18 13:13:51;;;;;;;;;;;;;;;7.56;100.00;99529.31;107295;1303;23250;-65
2024/03/18 13:16:21;;;;;;;;;;;;;;;7.45;100.00;99530.01;107563;1298;22988;-56
2024/03/18 13:18:54;;;;;;;;;;;;;;;7.34;100.00;99532.25;105940;1298;25249;-63
2024/03/18 13:21:28;;;;;;;;;;;;;;;7.23;100.00;99531.20;107034;1299;22577;-63
2024/03/18 13:23:56;;;;;;;;;;;;;;;7.14;100.00;99529.63;107189;1304;22591;-64
2024/03/18 13:26:25;;;;;;;;;;;;;;;7.09;100.00;99527.88;107052;1303;23362;-64
2024/03/18 13:28:54;;;;;;;;;;;;;;;7.03;100.00;99529.27;107213;1300;23082;-56
2024/03/18 13:31:22;;;;;;;;;;;;;;;6.97;100.00;99525.77;107287;1303;22679;-57
2024/03/18 13:33:51;;;;;;;;;;;;;;;6.89;100.00;99529.58;107322;1303;22590;-56
2024/03/18 13:36:19;;;;;;;;;;;;;;;6.77;100.00;99526.93;107257;1298;22552;-56
2024/03/18 13:38:46;;;;;;;;;;;;;;;6.67;100.00;99527.41;107617;1303;22518;-64
2024/03/18 13:41:21;;;;;;;;;;;;;;;6.59;100.00;99530.69;107581;1303;22986;-56
2024/03/18 13:43:52;;;;;;;;;;;;;;;6.53;100.00;99535.34;107151;1298;23422;-57
2024/03/18 13:46:21;;;;;;;;;;;;;;;6.48;100.00;99537.39;105875;1298;22540;-58
2024/03/18 13:48:49;;;;;;;;;;;;;;;6.39;100.00;99546.19;106778;1303;22526;-64
2024/03/18 13:51:18;;;;;;;;;;;;;;;6.27;100.00;99545.95;107336;1297;22844;-64
2024/03/18 13:53:47;;;;;;;;;;;;;;;6.16;100.00;99542.25;106702;1304;22590;-63
2024/03/18 13:56:16;;;;;;;;;;;;;;;6.05;100.00;99547.90;107492;1297;23256;-63
2024/03/18 13:58:47;;;;;;;;;;;;;;;5.95;100.00;99548.70;107080;1303;22520;-56
2024/03/18 14:01:16;;;;;;;;;;;;;;;5.85;100.00;99552.75;107090;1303;22691;-63
2024/03/18 14:03:44;;;;;;;;;;;;;;;5.83;100.00;99545.29;107506;1303;22609;-63
2024/03/18 14:06:13;;;;;;;;;;;;;;;5.86;100.00;99552.24;107357;1303;22566;-64
2024/03/18 14:08:44;;;;;;;;;;;;;;;5.88;100.00;99552.77;106426;1303;22546;-58
2024/03/18 14:11:13;;;;;;;;;;;;;;;5.86;100.00;99550.33;107387;1304;23433;-57
2024/03/18 14:13:42;;;;;;;;;;;;;;;5.81;100.00;99556.17;107546;1298;22523;-58
2024/03/18 14:16:15;;;;;;;;;;;;;;;5.75;100.00;99553.02;106935;1298;24475;-57
2024/03/18 14:18:51;;;;;;;;;;;;;;;5.70;100.00;99557.31;106987;1305;22610;-61
